createdAt,value
2017-07-21T00:01:15.174Z,17.90
2017-07-21T00:03:42.760Z,17.90
2017-07-21T00:06:10.318Z,17.90
2017-07-21T00:08:37.889Z,17.90
2017-07-21T00:11:05.422Z,17.80
2017-07-21T00:13:33.018Z,17.70
2017-07-21T00:16:00.561Z,17.80
2017-07-21T00:18:28.116Z,17.90
2017-07-21T00:20:55.687Z,17.90
2017-07-21T00:23:23.247Z,17.90
2017-07-21T00:25:50.820Z,17.80
2017-07-21T00:28:18.470Z,17.80
2017-07-21T00:30:46.035Z,17.90
2017-07-21T00:33:13.589Z,17.90
2017-07-21T00:35:41.114Z,17.80
2017-07-21T00:38:09.534Z,17.90
2017-07-21T00:40:37.095Z,17.80
2017-07-21T00:43:04.757Z,17.80
2017-07-21T00:45:32.296Z,17.70
2017-07-21T00:47:59.890Z,17.70
2017-07-21T00:50:27.441Z,17.80
2017-07-21T00:52:55.097Z,17.70
2017-07-21T00:55:22.667Z,17.80
2017-07-21T00:57:50.226Z,17.80
2017-07-21T01:00:17.759Z,17.80
2017-07-21T01:02:45.351Z,17.80
2017-07-21T01:05:12.916Z,17.90
2017-07-21T01:07:40.567Z,17.80
2017-07-21T01:10:08.135Z,17.90
2017-07-21T01:12:35.694Z,17.90
2017-07-21T01:15:03.259Z,17.90
2017-07-21T01:17:30.818Z,17.90
2017-07-21T01:19:58.479Z,17.80
2017-07-21T01:22:26.034Z,17.80
2017-07-21T01:24:53.578Z,17.80
2017-07-21T01:27:21.101Z,17.80
2017-07-21T01:29:48.699Z,17.70
2017-07-21T01:32:16.280Z,17.70
2017-07-21T01:34:43.840Z,17.70
2017-07-21T01:37:11.402Z,17.60
2017-07-21T01:39:39.060Z,17.40
2017-07-21T01:42:06.630Z,17.30
2017-07-21T01:44:34.287Z,17.30
2017-07-21T01:47:01.846Z,17.20
2017-07-21T01:49:29.397Z,17.30
2017-07-21T01:51:56.974Z,17.30
2017-07-21T01:54:24.746Z,17.20
2017-07-21T01:56:52.306Z,17.20
2017-07-21T01:59:19.962Z,17.00
2017-07-21T02:01:47.527Z,17.00
2017-07-21T02:04:15.126Z,17.00
2017-07-21T02:06:42.751Z,16.80
2017-07-21T02:09:10.405Z,16.90
2017-07-21T02:11:37.975Z,16.90
2017-07-21T02:14:05.633Z,16.90
2017-07-21T02:16:33.163Z,16.80
2017-07-21T02:19:00.717Z,17.00
2017-07-21T02:21:29.015Z,16.80
2017-07-21T02:23:56.705Z,16.80
2017-07-21T02:26:24.263Z,16.70
2017-07-21T02:29:12.109Z,16.60
2017-07-21T02:31:39.649Z,16.70
2017-07-21T02:34:07.197Z,16.70
2017-07-21T02:36:34.770Z,16.80
2017-07-21T02:39:02.301Z,16.70
2017-07-21T02:41:29.898Z,16.70
2017-07-21T02:43:57.426Z,16.40
2017-07-21T02:46:24.965Z,16.50
2017-07-21T02:48:52.582Z,16.60
2017-07-21T02:51:20.108Z,16.60
2017-07-21T02:53:47.709Z,16.70
2017-07-21T02:56:15.234Z,16.70
2017-07-21T02:58:42.823Z,16.80
2017-07-21T03:01:10.386Z,16.70
2017-07-21T03:03:37.947Z,16.60
2017-07-21T03:06:05.507Z,16.60
2017-07-21T03:08:33.033Z,16.60
2017-07-21T03:11:01.342Z,16.40
2017-07-21T03:13:28.870Z,16.40
2017-07-21T03:15:56.410Z,16.50
2017-07-21T03:18:24.025Z,16.50
2017-07-21T03:20:51.598Z,16.60
2017-07-21T03:23:24.070Z,16.60
2017-07-21T03:25:51.622Z,16.60
2017-07-21T03:28:19.186Z,16.60
2017-07-21T03:30:47.744Z,16.40
2017-07-21T03:33:15.342Z,16.40
2017-07-21T03:35:42.894Z,16.40
2017-07-21T03:38:10.446Z,16.50
2017-07-21T03:40:37.994Z,16.50
2017-07-21T03:43:05.582Z,16.40
2017-07-21T03:45:33.138Z,16.40
2017-07-21T03:48:00.792Z,16.40
2017-07-21T03:50:28.353Z,16.40
2017-07-21T03:52:55.882Z,16.40
2017-07-21T03:55:24.210Z,16.40
2017-07-21T03:57:51.757Z,16.40
2017-07-21T04:00:19.314Z,16.40
2017-07-21T04:02:46.885Z,16.40
2017-07-21T04:05:14.444Z,16.30
2017-07-21T04:07:42.242Z,16.10
2017-07-21T04:10:09.866Z,16.20
2017-07-21T04:12:37.397Z,16.20
2017-07-21T04:15:04.986Z,16.20
2017-07-21T04:17:32.548Z,16.30
2017-07-21T04:20:00.120Z,16.30
2017-07-21T04:22:27.679Z,16.20
2017-07-21T04:24:55.233Z,16.10
2017-07-21T04:27:22.766Z,16.10
2017-07-21T04:29:50.362Z,16.10
2017-07-21T04:32:17.918Z,16.20
2017-07-21T04:34:45.485Z,16.10
2017-07-21T04:37:13.033Z,16.30
2017-07-21T04:39:40.598Z,16.30
2017-07-21T04:42:08.166Z,16.40
2017-07-21T04:44:35.693Z,16.40
2017-07-21T04:47:03.277Z,16.40
2017-07-21T04:49:30.841Z,16.40
2017-07-21T04:51:58.407Z,16.50
2017-07-21T04:54:25.957Z,16.40
2017-07-21T04:56:53.529Z,16.20
2017-07-21T04:59:21.063Z,16.40
2017-07-21T05:01:48.645Z,16.40
2017-07-21T05:04:16.214Z,16.50
2017-07-21T05:06:43.770Z,16.50
2017-07-21T05:09:11.298Z,16.70
2017-07-21T05:11:38.904Z,16.80
2017-07-21T05:14:06.430Z,16.70
2017-07-21T05:16:34.015Z,16.70
2017-07-21T05:19:01.574Z,16.70
2017-07-21T05:21:29.241Z,16.70
2017-07-21T05:23:56.798Z,16.80
2017-07-21T05:26:24.463Z,17.30
2017-07-21T05:28:52.025Z,19.00
2017-07-21T05:31:19.693Z,21.00
2017-07-21T05:33:47.241Z,22.40
2017-07-21T05:36:14.798Z,22.50
2017-07-21T05:38:42.335Z,23.80
2017-07-21T05:41:09.925Z,24.10
2017-07-21T05:43:37.453Z,24.60
2017-07-21T05:46:05.145Z,24.80
2017-07-21T05:48:32.666Z,25.20
2017-07-21T05:51:00.990Z,25.50
2017-07-21T05:53:28.576Z,25.40
2017-07-21T05:55:56.210Z,25.80
2017-07-21T05:58:23.778Z,26.10
2017-07-21T06:00:51.336Z,23.90
2017-07-21T06:03:18.898Z,21.90
2017-07-21T06:05:46.458Z,21.20
2017-07-21T06:08:13.991Z,20.70
2017-07-21T06:10:41.523Z,19.80
2017-07-21T06:13:09.874Z,19.50
2017-07-21T06:15:37.414Z,19.50
2017-07-21T06:18:05.085Z,19.70
2017-07-21T06:20:32.625Z,20.20
2017-07-21T06:23:00.418Z,20.30
2017-07-21T06:25:27.967Z,19.90
2017-07-21T06:27:55.521Z,19.60
2017-07-21T06:30:23.054Z,19.40
2017-07-21T06:32:51.465Z,19.10
2017-07-21T06:35:19.025Z,19.10
2017-07-21T06:37:46.693Z,19.20
2017-07-21T06:40:14.238Z,19.90
2017-07-21T06:42:41.832Z,20.60
2017-07-21T06:45:09.377Z,20.40
2017-07-21T06:47:37.033Z,20.00
2017-07-21T06:50:04.606Z,20.00
2017-07-21T06:52:32.262Z,20.00
2017-07-21T06:54:59.823Z,19.80
2017-07-21T06:57:27.500Z,19.90
2017-07-21T06:59:55.068Z,20.40
2017-07-21T07:02:22.651Z,20.60
2017-07-21T07:04:50.189Z,20.40
2017-07-21T07:07:17.830Z,20.60
2017-07-21T07:09:45.380Z,21.80
2017-07-21T07:12:12.949Z,22.20
2017-07-21T07:14:40.474Z,23.10
2017-07-21T07:17:08.768Z,24.00
2017-07-21T07:19:36.358Z,24.00
2017-07-21T07:22:03.890Z,24.20
2017-07-21T07:24:31.507Z,24.20
2017-07-21T07:26:59.048Z,25.40
2017-07-21T07:29:26.703Z,25.80
2017-07-21T07:31:54.257Z,26.30
2017-07-21T07:34:21.933Z,26.60
2017-07-21T07:36:49.501Z,25.10
2017-07-21T07:39:17.149Z,24.70
2017-07-21T07:41:44.726Z,24.40
2017-07-21T07:44:12.278Z,24.60
2017-07-21T07:46:39.805Z,25.00
2017-07-21T07:49:07.362Z,24.80
2017-07-21T07:51:34.965Z,25.00
2017-07-21T07:54:02.639Z,26.30
2017-07-21T07:56:30.192Z,25.50
2017-07-21T07:58:57.846Z,24.10
2017-07-21T08:01:25.410Z,22.60
2017-07-21T08:03:53.075Z,23.60
2017-07-21T08:06:20.631Z,24.40
2017-07-21T08:08:48.194Z,24.50
2017-07-21T08:11:15.754Z,26.00
2017-07-21T08:13:43.406Z,25.90
2017-07-21T08:16:10.935Z,25.30
2017-07-21T08:18:38.529Z,24.30
2017-07-21T08:21:06.054Z,23.90
2017-07-21T08:23:33.591Z,23.30
2017-07-21T08:26:01.322Z,22.50
2017-07-21T08:28:28.854Z,22.30
2017-07-21T08:30:56.386Z,22.30
2017-07-21T08:33:24.685Z,22.30
2017-07-21T08:35:52.282Z,22.20
2017-07-21T08:38:19.882Z,22.00
2017-07-21T08:40:48.210Z,23.40
2017-07-21T08:43:15.775Z,23.40
2017-07-21T08:45:43.334Z,23.30
2017-07-21T08:48:10.893Z,23.00
2017-07-21T08:50:38.458Z,24.00
2017-07-21T08:53:06.003Z,24.80
2017-07-21T08:55:33.578Z,25.50
2017-07-21T08:58:01.134Z,25.80
2017-07-21T09:00:28.697Z,26.10
2017-07-21T09:02:56.262Z,25.30
2017-07-21T09:05:23.817Z,25.50
2017-07-21T09:07:51.378Z,26.40
2017-07-21T09:10:18.905Z,24.90
2017-07-21T09:12:47.226Z,25.50
2017-07-21T09:15:14.777Z,25.50
2017-07-21T09:17:42.439Z,26.30
2017-07-21T09:20:10.004Z,26.30
2017-07-21T09:22:37.561Z,25.80
2017-07-21T09:25:05.093Z,25.00
2017-07-21T09:27:33.413Z,23.80
2017-07-21T09:30:00.977Z,23.70
2017-07-21T09:32:28.499Z,23.70
2017-07-21T09:34:56.042Z,23.30
2017-07-21T09:37:24.372Z,24.00
2017-07-21T09:39:51.921Z,24.00
2017-07-21T09:42:19.445Z,25.50
2017-07-21T09:44:47.772Z,27.10
2017-07-21T09:47:15.334Z,27.10
2017-07-21T09:49:42.890Z,27.40
2017-07-21T09:52:10.452Z,26.90
2017-07-21T09:54:38.110Z,26.30
2017-07-21T09:57:05.670Z,26.20
2017-07-21T09:59:33.241Z,25.70
2017-07-21T10:02:00.771Z,26.50
2017-07-21T10:04:28.345Z,26.80
2017-07-21T10:06:55.917Z,27.00
2017-07-21T10:09:23.467Z,26.60
2017-07-21T10:11:51.137Z,26.10
2017-07-21T10:14:18.661Z,25.50
2017-07-21T10:16:46.958Z,25.10
2017-07-21T10:19:14.549Z,25.00
2017-07-21T10:21:42.078Z,24.60
2017-07-21T10:24:09.657Z,24.20
2017-07-21T10:26:37.195Z,24.00
2017-07-21T10:29:04.784Z,24.20
2017-07-21T10:31:32.350Z,24.30
2017-07-21T10:33:59.878Z,23.70
2017-07-21T10:36:28.289Z,23.40
2017-07-21T10:38:55.845Z,23.80
2017-07-21T10:41:23.531Z,24.00
2017-07-21T10:43:51.174Z,24.80
2017-07-21T10:46:18.730Z,24.80
2017-07-21T10:48:46.265Z,24.50
2017-07-21T10:51:13.860Z,24.50
2017-07-21T10:53:41.405Z,24.50
2017-07-21T10:56:08.967Z,25.30
2017-07-21T10:58:36.536Z,25.90
2017-07-21T11:01:04.098Z,25.00
2017-07-21T11:03:31.630Z,24.60
2017-07-21T11:05:59.210Z,24.00
2017-07-21T11:08:26.786Z,24.00
2017-07-21T11:10:54.433Z,24.40
2017-07-21T11:13:21.970Z,25.00
2017-07-21T11:15:49.657Z,25.20
2017-07-21T11:18:17.229Z,25.20
2017-07-21T11:20:44.785Z,25.50
2017-07-21T11:23:12.323Z,26.00
2017-07-21T11:25:39.938Z,26.10
2017-07-21T11:28:07.477Z,26.10
2017-07-21T11:30:35.030Z,25.90
2017-07-21T11:33:02.590Z,25.50
2017-07-21T11:35:30.150Z,25.30
2017-07-21T11:37:57.702Z,25.00
2017-07-21T11:40:25.278Z,24.90
2017-07-21T11:42:52.806Z,25.70
2017-07-21T11:45:20.347Z,24.80
2017-07-21T11:47:48.678Z,25.00
2017-07-21T11:50:16.226Z,25.00
2017-07-21T11:52:43.789Z,24.90
2017-07-21T11:55:11.317Z,25.50
2017-07-21T11:57:38.853Z,25.70
2017-07-21T12:00:06.419Z,25.30
2017-07-21T12:02:34.748Z,25.90
2017-07-21T12:05:02.280Z,25.90
2017-07-21T12:07:29.825Z,25.90
2017-07-21T12:09:58.145Z,25.40
2017-07-21T12:12:25.689Z,25.40
2017-07-21T12:14:53.269Z,25.80
2017-07-21T12:17:20.835Z,25.60
2017-07-21T12:19:48.365Z,25.30
2017-07-21T12:22:15.926Z,25.30
2017-07-21T12:24:43.522Z,25.70
2017-07-21T12:27:11.072Z,26.10
2017-07-21T12:29:38.642Z,26.10
2017-07-21T12:32:06.300Z,26.20
2017-07-21T12:34:33.825Z,26.00
2017-07-21T12:37:01.385Z,26.50
2017-07-21T12:39:28.990Z,26.40
2017-07-21T12:41:56.649Z,26.50
2017-07-21T12:44:24.202Z,25.80
2017-07-21T12:46:51.757Z,25.90
2017-07-21T12:49:19.321Z,25.80
2017-07-21T12:51:46.856Z,25.60
2017-07-21T12:54:14.392Z,25.40
2017-07-21T12:56:41.924Z,25.50
2017-07-21T12:59:09.456Z,25.80
2017-07-21T13:01:37.137Z,26.20
2017-07-21T13:04:04.667Z,26.00
2017-07-21T13:06:32.258Z,26.40
2017-07-21T13:08:59.785Z,26.40
2017-07-21T13:11:27.375Z,25.50
2017-07-21T13:13:55.052Z,25.20
2017-07-21T13:16:22.705Z,25.40
2017-07-21T13:18:50.361Z,26.10
2017-07-21T13:21:17.894Z,26.20
2017-07-21T13:23:45.491Z,26.20
2017-07-21T13:26:13.017Z,26.50
2017-07-21T13:28:40.574Z,26.40
2017-07-21T13:31:08.161Z,26.40
2017-07-21T13:33:35.732Z,26.50
2017-07-21T13:36:03.265Z,26.40
2017-07-21T13:38:30.858Z,26.30
2017-07-21T13:40:58.405Z,26.40
2017-07-21T13:43:25.974Z,26.40
2017-07-21T13:45:53.530Z,26.70
2017-07-21T13:48:21.186Z,26.20
2017-07-21T13:50:48.750Z,25.50
2017-07-21T13:53:16.293Z,25.50
2017-07-21T13:55:43.821Z,25.40
2017-07-21T13:58:12.144Z,25.30
2017-07-21T14:00:39.713Z,25.30
2017-07-21T14:03:07.377Z,25.50
2017-07-21T14:05:34.934Z,25.50
2017-07-21T14:08:15.393Z,25.90
2017-07-21T14:10:42.965Z,25.80
2017-07-21T14:13:10.532Z,25.50
2017-07-21T14:15:39.100Z,25.70
2017-07-21T14:18:06.622Z,25.60
2017-07-21T14:20:34.921Z,25.20
2017-07-21T14:23:02.532Z,25.20
2017-07-21T14:25:30.174Z,24.30
2017-07-21T14:27:57.798Z,24.50
2017-07-21T14:30:25.407Z,24.20
2017-07-21T14:32:52.942Z,23.90
2017-07-21T14:35:20.514Z,23.80
2017-07-21T14:37:48.082Z,24.10
2017-07-21T14:40:15.632Z,24.60
2017-07-21T14:42:43.153Z,25.20
2017-07-21T14:45:11.478Z,25.80
2017-07-21T14:47:39.043Z,25.80
2017-07-21T14:50:06.574Z,26.00
2017-07-21T14:52:34.097Z,26.00
2017-07-21T14:55:01.719Z,26.10
2017-07-21T14:57:29.274Z,26.20
2017-07-21T14:59:56.838Z,26.10
2017-07-21T15:02:24.401Z,26.10
2017-07-21T15:04:51.957Z,26.10
2017-07-21T15:07:19.521Z,26.00
2017-07-21T15:09:47.051Z,25.90
2017-07-21T15:12:14.637Z,25.80
2017-07-21T15:14:42.164Z,25.80
2017-07-21T15:17:10.462Z,26.10
2017-07-21T15:19:38.037Z,26.10
2017-07-21T15:22:05.602Z,26.20
2017-07-21T15:24:33.166Z,26.00
2017-07-21T15:27:00.720Z,26.10
2017-07-21T15:29:28.255Z,25.80
2017-07-21T15:31:55.849Z,25.90
2017-07-21T15:34:23.401Z,25.80
2017-07-21T15:36:50.961Z,25.70
2017-07-21T15:39:18.530Z,25.80
2017-07-21T15:41:46.058Z,25.70
2017-07-21T15:44:13.623Z,25.50
2017-07-21T15:46:41.205Z,25.20
2017-07-21T15:49:08.772Z,25.20
2017-07-21T15:51:36.337Z,25.30
2017-07-21T15:54:03.985Z,25.30
2017-07-21T15:56:31.514Z,25.20
2017-07-21T15:58:59.839Z,25.20
2017-07-21T16:01:27.369Z,25.20
2017-07-21T16:03:54.949Z,25.30
2017-07-21T16:06:22.510Z,25.30
2017-07-21T16:08:50.041Z,24.70
2017-07-21T16:11:17.626Z,24.60
2017-07-21T16:13:45.193Z,24.40
2017-07-21T16:16:12.758Z,24.30
2017-07-21T16:18:40.310Z,24.30
2017-07-21T16:21:07.873Z,24.40
2017-07-21T16:23:35.535Z,24.20
2017-07-21T16:26:03.098Z,24.40
2017-07-21T16:28:30.630Z,24.50
2017-07-21T16:30:58.161Z,24.80
2017-07-21T16:33:25.686Z,24.90
2017-07-21T16:35:53.223Z,25.00
2017-07-21T16:38:20.806Z,25.10
2017-07-21T16:40:48.365Z,25.00
2017-07-21T16:43:15.894Z,24.90
2017-07-21T16:45:43.489Z,24.60
2017-07-21T16:48:11.039Z,24.40
2017-07-21T16:50:38.610Z,24.20
2017-07-21T16:53:06.132Z,24.10
2017-07-21T16:55:34.546Z,24.00
2017-07-21T16:58:02.103Z,23.90
2017-07-21T17:00:29.769Z,23.70
2017-07-21T17:02:57.533Z,23.70
2017-07-21T17:05:25.088Z,23.50
2017-07-21T17:07:52.610Z,23.40
2017-07-21T17:10:20.929Z,23.10
2017-07-21T17:12:48.570Z,23.10
2017-07-21T17:15:16.157Z,23.10
2017-07-21T17:17:44.507Z,23.20
2017-07-21T17:20:12.070Z,23.30
2017-07-21T17:22:39.662Z,23.20
2017-07-21T17:25:07.322Z,23.30
2017-07-21T17:27:34.849Z,23.30
2017-07-21T17:30:02.448Z,23.30
2017-07-21T17:32:29.998Z,23.10
2017-07-21T17:34:57.565Z,23.10
2017-07-21T17:37:25.106Z,23.20
2017-07-21T17:39:52.627Z,23.10
2017-07-21T17:42:20.254Z,23.00
2017-07-21T17:44:47.778Z,22.90
2017-07-21T17:47:15.309Z,22.80
2017-07-21T17:49:43.026Z,22.90
2017-07-21T17:52:10.599Z,22.80
2017-07-21T17:54:38.353Z,22.80
2017-07-21T17:57:05.927Z,22.80
2017-07-21T17:59:33.468Z,22.80
2017-07-21T18:02:01.054Z,22.80
2017-07-21T18:04:28.806Z,22.70
2017-07-21T18:06:56.355Z,22.70
2017-07-21T18:09:23.928Z,22.60
2017-07-21T18:11:51.489Z,22.60
2017-07-21T18:14:19.071Z,22.60
2017-07-21T18:16:47.434Z,22.50
2017-07-21T18:19:14.989Z,22.50
2017-07-21T18:21:42.657Z,22.30
2017-07-21T18:24:10.182Z,22.30
2017-07-21T18:26:37.783Z,22.30
2017-07-21T18:29:05.319Z,22.30
2017-07-21T18:31:32.868Z,22.20
2017-07-21T18:34:00.398Z,22.10
2017-07-21T18:36:27.992Z,22.00
2017-07-21T18:38:55.522Z,21.80
2017-07-21T18:41:23.132Z,21.70
2017-07-21T18:43:50.666Z,21.80
2017-07-21T18:46:18.257Z,21.70
2017-07-21T18:48:45.801Z,21.60
2017-07-21T18:51:13.377Z,21.50
2017-07-21T18:53:40.941Z,21.50
2017-07-21T18:56:08.507Z,21.40
2017-07-21T18:58:36.057Z,21.30
2017-07-21T19:01:03.617Z,21.40
2017-07-21T19:03:31.181Z,21.30
2017-07-21T19:05:58.715Z,21.10
2017-07-21T19:08:26.250Z,21.00
2017-07-21T19:10:54.562Z,20.80
2017-07-21T19:13:22.115Z,20.80
2017-07-21T19:15:49.651Z,20.80
2017-07-21T19:18:17.206Z,20.80
2017-07-21T19:20:44.830Z,20.70
2017-07-21T19:23:12.490Z,20.60
2017-07-21T19:25:40.023Z,20.60
2017-07-21T19:28:07.614Z,20.50
2017-07-21T19:30:35.174Z,20.50
2017-07-21T19:33:02.840Z,20.40
2017-07-21T19:35:30.398Z,20.30
2017-07-21T19:37:58.058Z,20.30
2017-07-21T19:40:25.588Z,20.20
2017-07-21T19:42:53.176Z,20.20
2017-07-21T19:45:20.718Z,20.20
2017-07-21T19:47:48.269Z,20.10
2017-07-21T19:50:16.579Z,20.10
2017-07-21T19:52:44.130Z,20.10
2017-07-21T19:55:11.706Z,19.90
2017-07-21T19:57:39.266Z,19.80
2017-07-21T20:00:06.797Z,19.70
2017-07-21T20:02:34.389Z,19.60
2017-07-21T20:05:01.955Z,19.50
2017-07-21T20:07:29.606Z,19.50
2017-07-21T20:09:57.186Z,19.50
2017-07-21T20:12:24.737Z,19.50
2017-07-21T20:14:52.273Z,19.40
2017-07-21T20:17:19.830Z,19.40
2017-07-21T20:19:47.419Z,19.30
2017-07-21T20:22:14.949Z,19.30
2017-07-21T20:24:42.533Z,19.30
2017-07-21T20:27:10.097Z,19.30
2017-07-21T20:29:37.638Z,19.20
2017-07-21T20:32:05.222Z,19.10
2017-07-21T20:34:32.756Z,19.10
2017-07-21T20:37:00.339Z,19.10
2017-07-21T20:39:27.905Z,19.00
2017-07-21T20:41:55.468Z,19.00
2017-07-21T20:44:22.998Z,19.00
2017-07-21T20:46:50.585Z,19.00
2017-07-21T20:49:18.147Z,19.00
2017-07-21T20:51:45.703Z,19.00
2017-07-21T20:54:13.273Z,18.90
2017-07-21T20:56:40.814Z,18.90
2017-07-21T20:59:08.482Z,18.90
2017-07-21T21:01:36.032Z,18.90
2017-07-21T21:04:03.612Z,18.90
2017-07-21T21:06:31.174Z,18.90
2017-07-21T21:08:58.738Z,18.80
2017-07-21T21:11:26.270Z,18.80
2017-07-21T21:13:53.810Z,18.80
2017-07-21T21:16:22.105Z,18.80
2017-07-21T21:18:49.783Z,18.80
2017-07-21T21:21:17.362Z,18.80
2017-07-21T21:23:44.898Z,18.80
2017-07-21T21:26:12.422Z,18.70
2017-07-21T21:28:40.034Z,18.70
2017-07-21T21:31:07.600Z,18.70
2017-07-21T21:33:35.258Z,18.70
2017-07-21T21:36:02.786Z,18.70
2017-07-21T21:38:31.120Z,18.50
2017-07-21T21:40:58.657Z,18.50
2017-07-21T21:43:26.381Z,18.40
2017-07-21T21:45:54.678Z,18.40
2017-07-21T21:48:22.286Z,18.40
2017-07-21T21:50:49.819Z,18.30
2017-07-21T21:53:17.396Z,18.40
2017-07-21T21:55:44.926Z,18.30
2017-07-21T21:58:12.458Z,18.20
2017-07-21T22:00:40.786Z,18.10
2017-07-21T22:03:08.350Z,18.10
2017-07-21T22:05:35.906Z,18.10
2017-07-21T22:08:03.566Z,18.00
2017-07-21T22:10:31.131Z,17.90
2017-07-21T22:12:58.694Z,17.90
2017-07-21T22:15:38.206Z,17.90
2017-07-21T22:18:05.803Z,17.90
2017-07-21T22:20:33.362Z,17.90
2017-07-21T22:23:00.927Z,17.80
2017-07-21T22:25:28.474Z,17.80
2017-07-21T22:27:56.046Z,17.70
2017-07-21T22:30:23.574Z,17.70
2017-07-21T22:32:51.157Z,17.70
2017-07-21T22:35:18.681Z,17.70
2017-07-21T22:37:47.002Z,17.80
2017-07-21T22:40:14.557Z,17.80
2017-07-21T22:42:42.118Z,17.80
2017-07-21T22:45:09.875Z,17.70
2017-07-21T22:47:37.403Z,17.70
2017-07-21T22:50:05.822Z,17.70
2017-07-21T22:52:33.346Z,17.70
2017-07-21T22:55:01.766Z,17.70
2017-07-21T22:57:29.302Z,17.70
2017-07-21T22:59:56.891Z,17.70
2017-07-21T23:02:24.454Z,17.60
2017-07-21T23:04:52.126Z,17.70
2017-07-21T23:07:19.680Z,17.50
2017-07-21T23:09:47.238Z,17.40
2017-07-21T23:12:14.801Z,17.40
2017-07-21T23:14:42.466Z,17.40
2017-07-21T23:17:10.028Z,17.30
2017-07-21T23:19:37.568Z,17.30
2017-07-21T23:22:05.149Z,17.30
2017-07-21T23:24:32.710Z,17.20
2017-07-21T23:27:00.272Z,17.30
2017-07-21T23:29:27.836Z,17.20
2017-07-21T23:31:55.373Z,17.20
2017-07-21T23:34:22.899Z,17.20
2017-07-21T23:36:51.231Z,17.00
2017-07-21T23:39:18.986Z,17.00
2017-07-21T23:41:46.549Z,17.00
2017-07-21T23:44:14.114Z,16.90
2017-07-21T23:46:41.680Z,17.00
2017-07-21T23:49:09.231Z,17.10
2017-07-21T23:51:36.907Z,17.10
2017-07-21T23:54:04.445Z,17.10
2017-07-21T23:56:32.019Z,17.20
2017-07-21T23:58:59.574Z,17.20
